Погода Сабунчуна неделю

Апшеронский район, Азербайджан

24 - 30 апреля
  • 24апреля
    Сегодня
    +16°
    +27°
    Ясно и безоблачно
    ВремяПогодаТемператураВлажностьДавлениеВетер, м/сВероятность осадков
    01:00Ясно и безоблачно+15°C62 %763 мм2.3 м/с2 %
    04:00Ясно и безоблачно+15°C60 %762 мм1.2 м/с2 %
    07:00Ясно и безоблачно+16°C50 %762 мм0.6 м/с2 %
    10:00Ясно и безоблачно+25°C26 %762 мм1.9 м/с2 %
    13:00Ясно и безоблачно+27°C26 %762 мм5.5 м/с2 %
    16:00Ясно и безоблачно+26°C32 %760 мм7.2 м/с2 %
    19:00Ясно и безоблачно+21°C57 %760 мм6.0 м/с2 %
    22:00Ясно и безоблачно+18°C66 %761 мм4.0 м/с2 %
  • 25апреля
    Четверг
    +14°
    +25°
    Ясно и безоблачно
    ВремяПогодаТемператураВлажностьДавлениеВетер, м/сВероятность осадков
    01:00Небольшая облачность+16°C66 %760 мм3.8 м/с2 %
    04:00Практически безоблачно+16°C71 %759 мм3.2 м/с2 %
    07:00Ясно и безоблачно+17°C70 %759 мм3.4 м/с2 %
    10:00Небольшая облачность+23°C49 %760 мм5.8 м/с2 %
    13:00Ясно и безоблачно+25°C37 %759 мм8.2 м/с2 %
    16:00Ясно и безоблачно+24°C39 %759 мм7.3 м/с2 %
    19:00Ясно и безоблачно+21°C65 %759 мм5.8 м/с2 %
    22:00Ясно и безоблачно+17°C85 %760 мм2.5 м/с2 %
  • 26апреля
    Пятница
    +15°
    +26°
    Ясно и безоблачно
    ВремяПогодаТемператураВлажностьДавлениеВетер, м/сВероятность осадков
    01:00Ясно и безоблачно+15°C92 %760 мм1.9 м/с2 %
    04:00Ясно и безоблачно+15°C92 %759 мм0.8 м/с2 %
    07:00Ясно и безоблачно+16°C88 %760 мм1.3 м/с2 %
    10:00Ясно и безоблачно+23°C41 %760 мм4.0 м/с2 %
    13:00Ясно и безоблачно+25°C35 %760 мм6.8 м/с2 %
    16:00Ясно и безоблачно+25°C32 %759 мм6.1 м/с2 %
    19:00Ясно и безоблачно+21°C53 %759 мм3.9 м/с2 %
    22:00Ясно и безоблачно+17°C80 %760 мм1.4 м/с2 %
  • 27апреля
    Суббота
    +15°
    +27°
    Ясно и безоблачно
    ВремяПогодаТемператураВлажностьДавлениеВетер, м/сВероятность осадков
    01:00Ясно и безоблачно+15°C88 %760 мм1.8 м/с2 %
    04:00Ясно и безоблачно+16°C87 %760 мм0.7 м/с2 %
    07:00Ясно и безоблачно+17°C73 %761 мм0.5 м/с2 %
    10:00Ясно и безоблачно+24°C37 %762 мм3.5 м/с2 %
    13:00Ясно и безоблачно+27°C33 %762 мм6.1 м/с2 %
    16:00Ясно и безоблачно+27°C33 %762 мм5.3 м/с2 %
    19:00Ясно и безоблачно+23°C51 %762 мм3.5 м/с2 %
    22:00Ясно и безоблачно+19°C69 %763 мм0.5 м/с2 %
  • 28апреля
    Воскресенье
    +16°
    +29°
    Ясно и безоблачно
    ВремяПогодаТемператураВлажностьДавлениеВетер, м/сВероятность осадков
    01:00Ясно и безоблачно+16°C71 %764 мм0.9 м/с2 %
    04:00Ясно и безоблачно+17°C66 %763 мм0.1 м/с2 %
    07:00Ясно и безоблачно+18°C60 %764 мм0.0 м/с2 %
    10:00Ясно и безоблачно+26°C30 %764 мм2.2 м/с2 %
    13:00Ясно и безоблачно+28°C27 %763 мм5.9 м/с2 %
    16:00Ясно и безоблачно+28°C30 %762 мм6.8 м/с2 %
    19:00Ясно и безоблачно+24°C48 %762 мм5.1 м/с2 %
    22:00Ясно и безоблачно+19°C62 %762 мм2.4 м/с2 %
Мы используем cookies
Соглашаюсь